Time;durP1;ratioP1;P1;durP2;ratioP2;P2;SDS_P1;SDS_P2;PMS_P1;PMS_P2;Temp;Humidity;BMP_temperature;BMP_pressure;BME280_temperature;BME280_humidity;BME280_pressure;Samples;Min_cycle;Max_cycle;Signal;HPM_P1;HPM_P2
2023/01/20 00:01:49;;;;;;;43.07;29.80;;;;;;;;;;5092210;28;20429;-53
2023/01/20 00:04:17;;;;;;;43.43;29.40;;;;;;;;;;5092194;28;20222;-53
2023/01/20 00:06:45;;;;;;;47.20;28.83;;;;;;;;;;5091991;28;20437;-54
2023/01/20 00:09:13;;;;;;;46.97;29.83;;;;;;;;;;5090635;28;20900;-53
2023/01/20 00:11:39;;;;;;;50.03;29.87;;;;;;;;;;5092093;28;20421;-53
2023/01/20 00:14:05;;;;;;;42.13;28.10;;;;;;;;;;5092120;28;20934;-53
2023/01/20 00:16:32;;;;;;;40.37;28.17;;;;;;;;;;5091646;28;20203;-53
2023/01/20 00:18:58;;;;;;;40.50;28.23;;;;;;;;;;5092130;28;20644;-54
2023/01/20 00:21:24;;;;;;;43.10;26.47;;;;;;;;;;5091785;28;20424;-53
2023/01/20 00:23:51;;;;;;;41.40;28.37;;;;;;;;;;5091649;28;20663;-54
2023/01/20 00:26:18;;;;;;;38.70;27.10;;;;;;;;;;5091981;28;20199;-54
2023/01/20 00:28:45;;;;;;;38.17;27.77;;;;;;;;;;5091845;28;20441;-53
2023/01/20 00:31:12;;;;;;;36.47;25.57;;;;;;;;;;5091993;28;20790;-54
2023/01/20 00:33:38;;;;;;;40.90;27.30;;;;;;;;;;5091743;28;20801;-54
2023/01/20 00:36:04;;;;;;;36.97;26.27;;;;;;;;;;5091499;28;20472;-53
2023/01/20 00:38:30;;;;;;;39.23;26.80;;;;;;;;;;5091248;28;20247;-54
2023/01/20 00:40:58;;;;;;;40.83;26.90;;;;;;;;;;5092010;28;20441;-54
2023/01/20 00:43:24;;;;;;;38.27;25.73;;;;;;;;;;5091501;28;20238;-53
2023/01/20 00:45:50;;;;;;;41.37;26.83;;;;;;;;;;5091274;28;20436;-54
2023/01/20 00:48:16;;;;;;;36.77;25.90;;;;;;;;;;5091301;28;20226;-54
2023/01/20 00:50:42;;;;;;;36.23;26.07;;;;;;;;;;5090887;28;20199;-53
2023/01/20 00:53:08;;;;;;;36.07;24.73;;;;;;;;;;5091326;28;20437;-54
2023/01/20 00:55:34;;;;;;;37.67;25.00;;;;;;;;;;5090986;28;20524;-53
2023/01/20 00:58:01;;;;;;;36.57;26.40;;;;;;;;;;5091054;28;20222;-54
2023/01/20 01:00:27;;;;;;;41.10;26.47;;;;;;;;;;5091338;28;20211;-54
2023/01/20 01:02:53;;;;;;;36.57;24.77;;;;;;;;;;5090935;28;20437;-54
2023/01/20 01:05:19;;;;;;;40.07;25.27;;;;;;;;;;5091147;28;20297;-54
2023/01/20 01:07:45;;;;;;;38.73;25.57;;;;;;;;;;5090696;28;20195;-54
2023/01/20 01:10:11;;;;;;;35.37;24.97;;;;;;;;;;5090735;28;20263;-54
2023/01/20 01:12:37;;;;;;;37.97;25.77;;;;;;;;;;5090797;28;20233;-54
2023/01/20 01:15:05;;;;;;;34.03;24.00;;;;;;;;;;5088526;28;20187;-53
2023/01/20 01:17:31;;;;;;;34.53;23.23;;;;;;;;;;5088761;28;20658;-54
2023/01/20 01:19:57;;;;;;;35.63;22.90;;;;;;;;;;5090892;28;20431;-55
2023/01/20 01:22:23;;;;;;;34.47;24.07;;;;;;;;;;5090661;28;20795;-53
2023/01/20 01:24:49;;;;;;;35.53;24.37;;;;;;;;;;5090735;28;20473;-55
2023/01/20 01:27:15;;;;;;;42.77;25.47;;;;;;;;;;5090660;28;20800;-54
2023/01/20 01:29:41;;;;;;;39.33;24.73;;;;;;;;;;5090582;28;20425;-54
2023/01/20 01:32:08;;;;;;;49.00;28.50;;;;;;;;;;5090667;28;20954;-55
2023/01/20 01:34:34;;;;;;;41.97;27.37;;;;;;;;;;5090338;28;20290;-55
2023/01/20 01:37:00;;;;;;;43.73;26.50;;;;;;;;;;5090404;28;20560;-55
2023/01/20 01:39:27;;;;;;;40.83;26.23;;;;;;;;;;5090172;28;20207;-55
2023/01/20 01:41:53;;;;;;;41.37;27.10;;;;;;;;;;5090325;28;20202;-54
2023/01/20 01:44:19;;;;;;;49.47;28.30;;;;;;;;;;5090278;28;20854;-55
2023/01/20 01:46:46;;;;;;;46.03;28.20;;;;;;;;;;5090255;28;20256;-55
2023/01/20 01:49:15;;;;;;;42.23;27.57;;;;;;;;;;5090373;28;20441;-55
2023/01/20 01:51:44;;;;;;;41.27;26.50;;;;;;;;;;5090159;28;20862;-55
2023/01/20 01:54:12;;;;;;;41.63;25.90;;;;;;;;;;5090526;28;20454;-55
2023/01/20 01:56:40;;;;;;;42.00;25.70;;;;;;;;;;5090188;28;20494;-55
2023/01/20 01:59:06;;;;;;;42.30;27.00;;;;;;;;;;5090304;28;21025;-55
2023/01/20 02:01:34;;;;;;;35.37;24.33;;;;;;;;;;5089923;28;20504;-55
2023/01/20 02:04:03;;;;;;;37.77;24.73;;;;;;;;;;5090054;28;20515;-55
2023/01/20 02:06:31;;;;;;;36.80;25.00;;;;;;;;;;5090146;28;20431;-55
2023/01/20 02:08:58;;;;;;;42.80;25.70;;;;;;;;;;5092520;28;20453;-55
2023/01/20 02:11:24;;;;;;;37.23;24.83;;;;;;;;;;5094238;28;20531;-55
2023/01/20 02:13:50;;;;;;;35.70;23.93;;;;;;;;;;5094117;28;20998;-54
2023/01/20 02:16:18;;;;;;;39.60;26.17;;;;;;;;;;5094222;28;20206;-54
2023/01/20 02:18:49;;;;;;;40.03;26.50;;;;;;;;;;5093994;28;20616;-55
2023/01/20 02:21:28;;;;;;;37.33;26.30;;;;;;;;;;5094003;28;20425;-55
2023/01/20 02:24:07;;;;;;;37.03;24.20;;;;;;;;;;5093879;28;20472;-55
2023/01/20 02:26:48;;;;;;;41.47;24.93;;;;;;;;;;5094214;28;20523;-55
2023/01/20 02:29:22;;;;;;;36.30;24.20;;;;;;;;;;5093804;28;20451;-55
2023/01/20 02:32:09;;;;;;;35.27;23.40;;;;;;;;;;5093706;28;21259;-55
2023/01/20 02:34:39;;;;;;;33.60;23.97;;;;;;;;;;5093994;28;20421;-55
2023/01/20 02:37:09;;;;;;;35.63;22.00;;;;;;;;;;5093687;28;20484;-55
2023/01/20 02:39:39;;;;;;;31.73;22.70;;;;;;;;;;5093653;28;20510;-55
2023/01/20 02:42:08;;;;;;;33.90;22.37;;;;;;;;;;5093697;28;20531;-55
2023/01/20 02:44:38;;;;;;;32.10;21.30;;;;;;;;;;5093279;28;21148;-55
2023/01/20 02:47:09;;;;;;;36.80;23.37;;;;;;;;;;5093800;28;20456;-55
2023/01/20 02:49:39;;;;;;;33.03;22.07;;;;;;;;;;5093347;28;20440;-53
2023/01/20 02:52:09;;;;;;;34.70;23.50;;;;;;;;;;5093596;28;20445;-53
2023/01/20 02:54:37;;;;;;;33.40;22.67;;;;;;;;;;5093357;28;20433;-54
2023/01/20 02:57:04;;;;;;;35.67;22.80;;;;;;;;;;5093478;28;20447;-54
2023/01/20 02:59:33;;;;;;;33.13;21.80;;;;;;;;;;5093394;28;20819;-54
2023/01/20 03:02:01;;;;;;;35.10;23.77;;;;;;;;;;5093295;28;21002;-54
2023/01/20 03:04:31;;;;;;;31.37;22.00;;;;;;;;;;5093116;28;20483;-53
2023/01/20 03:06:59;;;;;;;35.63;22.93;;;;;;;;;;5093083;28;20540;-54
2023/01/20 03:09:27;;;;;;;32.57;21.83;;;;;;;;;;5093169;28;20886;-54
2023/01/20 03:11:56;;;;;;;39.77;22.87;;;;;;;;;;5093122;28;20490;-55
2023/01/20 03:14:22;;;;;;;30.37;22.90;;;;;;;;;;5093018;28;20524;-54
2023/01/20 03:16:49;;;;;;;34.13;22.63;;;;;;;;;;5092817;28;20639;-53
2023/01/20 03:19:15;;;;;;;30.20;21.33;;;;;;;;;;5093096;28;20797;-54
2023/01/20 03:21:41;;;;;;;31.07;22.30;;;;;;;;;;5092833;28;20441;-53
2023/01/20 03:24:09;;;;;;;33.27;22.13;;;;;;;;;;5092886;28;20567;-53
2023/01/20 03:26:35;;;;;;;33.13;21.80;;;;;;;;;;5092982;28;20434;-53
2023/01/20 03:29:04;;;;;;;31.30;21.23;;;;;;;;;;5092760;28;20662;-53
2023/01/20 03:31:32;;;;;;;32.40;21.37;;;;;;;;;;5092664;28;20517;-53
2023/01/20 03:34:00;;;;;;;32.20;21.07;;;;;;;;;;5092658;28;20440;-53
2023/01/20 03:36:27;;;;;;;31.20;21.87;;;;;;;;;;5092816;28;20481;-53
2023/01/20 03:38:54;;;;;;;29.17;19.53;;;;;;;;;;5092517;28;20432;-53
2023/01/20 03:41:25;;;;;;;32.90;20.70;;;;;;;;;;5092737;28;20510;-53
2023/01/20 03:44:11;;;;;;;32.20;21.17;;;;;;;;;;5069143;28;21010;-53
2023/01/20 03:46:41;;;;;;;31.87;20.70;;;;;;;;;;5092305;28;20624;-54
2023/01/20 03:49:11;;;;;;;32.10;20.27;;;;;;;;;;5092422;28;20441;-55
2023/01/20 03:51:42;;;;;;;32.23;21.67;;;;;;;;;;5092190;28;20491;-53
2023/01/20 03:54:09;;;;;;;31.40;21.53;;;;;;;;;;5092344;28;20451;-54
2023/01/20 03:56:40;;;;;;;30.73;20.00;;;;;;;;;;5092240;28;20433;-55
2023/01/20 03:59:08;;;;;;;33.10;21.70;;;;;;;;;;5092436;28;20508;-54
2023/01/20 04:01:35;;;;;;;30.77;20.83;;;;;;;;;;5092201;28;20490;-55
2023/01/20 04:04:03;;;;;;;27.77;19.37;;;;;;;;;;5092184;28;20491;-53
2023/01/20 04:06:30;;;;;;;28.63;19.83;;;;;;;;;;5092053;28;20479;-55
2023/01/20 04:08:59;;;;;;;30.27;19.30;;;;;;;;;;5091971;28;20469;-54
2023/01/20 04:11:26;;;;;;;26.83;19.27;;;;;;;;;;5092242;28;20437;-55
2023/01/20 04:13:54;;;;;;;31.70;19.63;;;;;;;;;;5091746;28;20439;-53
2023/01/20 04:16:20;;;;;;;33.40;20.27;;;;;;;;;;5091817;28;20441;-53
2023/01/20 04:18:48;;;;;;;32.80;20.33;;;;;;;;;;5091640;28;20429;-53
2023/01/20 04:21:17;;;;;;;29.27;19.53;;;;;;;;;;5091705;28;20425;-53
2023/01/20 04:23:45;;;;;;;28.40;18.47;;;;;;;;;;5091470;28;20477;-53
2023/01/20 04:26:11;;;;;;;29.57;19.33;;;;;;;;;;5091776;28;20484;-53
2023/01/20 04:28:37;;;;;;;28.07;19.27;;;;;;;;;;5091605;28;20468;-53
2023/01/20 04:31:04;;;;;;;30.87;20.10;;;;;;;;;;5090911;28;20199;-53
2023/01/20 04:33:30;;;;;;;29.13;18.93;;;;;;;;;;5091922;28;20199;-53
2023/01/20 04:35:56;;;;;;;29.60;18.57;;;;;;;;;;5091080;28;21060;-53
2023/01/20 04:38:22;;;;;;;29.17;18.73;;;;;;;;;;5091596;28;20274;-54
2023/01/20 04:40:48;;;;;;;28.17;18.70;;;;;;;;;;5091589;28;20195;-53
2023/01/20 04:43:14;;;;;;;28.07;18.60;;;;;;;;;;5091291;28;20201;-54
2023/01/20 04:45:40;;;;;;;29.23;19.03;;;;;;;;;;5091461;28;20512;-54
2023/01/20 04:48:08;;;;;;;26.23;18.23;;;;;;;;;;5091406;28;20437;-55
2023/01/20 04:50:37;;;;;;;27.77;19.77;;;;;;;;;;5091356;28;20500;-54
2023/01/20 04:53:03;;;;;;;28.40;19.23;;;;;;;;;;5091354;28;20429;-55
2023/01/20 04:55:29;;;;;;;29.27;19.33;;;;;;;;;;5091226;28;20586;-55
2023/01/20 04:57:55;;;;;;;30.07;18.57;;;;;;;;;;5091010;28;20195;-55
2023/01/20 05:00:21;;;;;;;26.60;18.27;;;;;;;;;;5091131;28;20202;-55
2023/01/20 05:02:47;;;;;;;28.70;17.60;;;;;;;;;;5090752;28;20194;-55
2023/01/20 05:05:14;;;;;;;27.87;17.67;;;;;;;;;;5091115;28;20265;-54
2023/01/20 05:07:40;;;;;;;23.20;16.27;;;;;;;;;;5090781;28;20647;-54
2023/01/20 05:10:07;;;;;;;28.50;17.53;;;;;;;;;;5091029;28;20437;-54
2023/01/20 05:12:33;;;;;;;26.73;17.20;;;;;;;;;;5090812;28;20264;-54
2023/01/20 05:14:59;;;;;;;22.83;15.90;;;;;;;;;;5090622;28;20794;-54
2023/01/20 05:17:25;;;;;;;23.33;15.27;;;;;;;;;;5090746;28;20437;-55
2023/01/20 05:19:51;;;;;;;22.97;15.37;;;;;;;;;;5090529;28;20247;-54
2023/01/20 05:22:18;;;;;;;22.97;15.10;;;;;;;;;;5090813;28;20481;-54
2023/01/20 05:24:44;;;;;;;22.23;15.70;;;;;;;;;;5090411;28;20223;-54
2023/01/20 05:27:10;;;;;;;24.43;16.00;;;;;;;;;;5090599;28;20798;-54
2023/01/20 05:29:36;;;;;;;21.00;15.23;;;;;;;;;;5090761;28;20297;-54
2023/01/20 05:32:02;;;;;;;20.07;14.37;;;;;;;;;;5090480;28;20699;-54
2023/01/20 05:34:28;;;;;;;22.70;15.77;;;;;;;;;;5090616;28;20846;-54
2023/01/20 05:36:54;;;;;;;24.03;15.00;;;;;;;;;;5090150;28;20465;-53
2023/01/20 05:39:21;;;;;;;22.70;15.47;;;;;;;;;;5090540;28;20199;-54
2023/01/20 05:41:48;;;;;;;22.57;15.63;;;;;;;;;;5090523;28;20431;-54
2023/01/20 05:44:14;;;;;;;25.27;16.07;;;;;;;;;;5089751;28;20477;-54
2023/01/20 05:46:40;;;;;;;21.50;16.33;;;;;;;;;;5090482;28;20441;-54
2023/01/20 05:49:06;;;;;;;22.90;14.87;;;;;;;;;;5090388;28;20958;-53
2023/01/20 05:51:33;;;;;;;22.40;15.27;;;;;;;;;;5090247;28;20432;-53
2023/01/20 05:53:59;;;;;;;20.83;14.73;;;;;;;;;;5090062;28;20441;-54
2023/01/20 05:56:26;;;;;;;24.03;14.73;;;;;;;;;;5090266;28;20429;-53
2023/01/20 05:58:54;;;;;;;19.50;14.53;;;;;;;;;;5089983;28;20808;-54
2023/01/20 06:01:20;;;;;;;22.30;15.03;;;;;;;;;;5090216;28;20953;-53
2023/01/20 06:03:46;;;;;;;20.63;13.77;;;;;;;;;;5089785;28;20500;-54
2023/01/20 06:06:17;;;;;;;24.97;15.23;;;;;;;;;;5090152;28;20256;-54
2023/01/20 06:08:43;;;;;;;21.30;15.33;;;;;;;;;;5090092;28;20203;-54
2023/01/20 06:11:09;;;;;;;25.77;16.70;;;;;;;;;;5089997;28;20429;-54
2023/01/20 06:13:38;;;;;;;33.03;22.17;;;;;;;;;;5089968;28;20984;-54
2023/01/20 06:16:04;;;;;;;21.60;14.20;;;;;;;;;;5089877;28;20464;-54
2023/01/20 06:18:30;;;;;;;21.10;14.20;;;;;;;;;;5089327;28;20726;-54
2023/01/20 06:20:57;;;;;;;21.63;14.20;;;;;;;;;;5089729;28;20447;-54
2023/01/20 06:23:23;;;;;;;17.47;13.07;;;;;;;;;;5089669;28;20203;-54
2023/01/20 06:25:56;;;;;;;17.00;12.87;;;;;;;;;;5089680;28;20437;-54
2023/01/20 06:28:22;;;;;;;20.00;14.33;;;;;;;;;;5089616;28;20460;-54
2023/01/20 06:30:50;;;;;;;21.17;14.27;;;;;;;;;;5089609;28;20832;-54
2023/01/20 06:33:16;;;;;;;21.23;14.57;;;;;;;;;;5089769;28;20207;-54
2023/01/20 06:35:42;;;;;;;20.93;15.03;;;;;;;;;;5089441;28;20998;-54
2023/01/20 06:38:08;;;;;;;19.20;13.17;;;;;;;;;;5089683;28;20317;-54
2023/01/20 06:40:34;;;;;;;20.67;13.67;;;;;;;;;;5089792;28;20195;-53
2023/01/20 06:43:00;;;;;;;17.43;13.03;;;;;;;;;;5089859;28;20699;-53
2023/01/20 06:45:26;;;;;;;18.43;12.83;;;;;;;;;;5089528;28;20231;-53
2023/01/20 06:47:53;;;;;;;21.13;14.67;;;;;;;;;;5089742;28;20486;-54
2023/01/20 06:50:19;;;;;;;19.63;14.50;;;;;;;;;;5089650;28;20931;-54
2023/01/20 06:52:45;;;;;;;19.67;14.30;;;;;;;;;;5089417;28;20429;-54
2023/01/20 06:55:11;;;;;;;25.37;15.50;;;;;;;;;;5092401;28;20195;-54
2023/01/20 06:57:37;;;;;;;22.90;14.60;;;;;;;;;;5093412;28;20191;-54
2023/01/20 07:00:03;;;;;;;19.10;14.20;;;;;;;;;;5093431;28;20195;-54
2023/01/20 07:02:29;;;;;;;20.37;14.53;;;;;;;;;;5093463;28;20218;-54
2023/01/20 07:04:58;;;;;;;18.27;13.70;;;;;;;;;;5092841;28;20921;-54
2023/01/20 07:07:24;;;;;;;19.27;13.70;;;;;;;;;;5093218;28;20619;-54
2023/01/20 07:09:53;;;;;;;18.93;13.97;;;;;;;;;;5092952;28;20465;-55
2023/01/20 07:12:19;;;;;;;19.83;13.93;;;;;;;;;;5092800;28;20205;-54
2023/01/20 07:14:45;;;;;;;20.20;14.47;;;;;;;;;;5092919;28;20432;-54
2023/01/20 07:17:11;;;;;;;20.80;14.57;;;;;;;;;;5092864;28;20711;-54
2023/01/20 07:19:37;;;;;;;19.33;14.00;;;;;;;;;;5092818;28;20256;-53
2023/01/20 07:22:05;;;;;;;24.10;14.53;;;;;;;;;;5092908;28;20445;-53
2023/01/20 07:24:31;;;;;;;22.93;14.67;;;;;;;;;;5092957;28;20245;-54
2023/01/20 07:26:56;;;;;;;21.70;14.00;;;;;;;;;;5092694;28;20825;-53
2023/01/20 07:29:23;;;;;;;20.53;14.07;;;;;;;;;;5092704;28;20195;-54
2023/01/20 07:31:49;;;;;;;20.90;14.57;;;;;;;;;;5092954;28;20294;-54
2023/01/20 07:34:15;;;;;;;22.63;14.53;;;;;;;;;;5092835;28;20508;-54
2023/01/20 07:36:41;;;;;;;22.80;14.00;;;;;;;;;;5092344;28;20736;-53
2023/01/20 07:39:08;;;;;;;19.30;14.17;;;;;;;;;;5092783;28;20230;-53
2023/01/20 07:41:34;;;;;;;22.93;15.83;;;;;;;;;;5092709;28;20206;-53
2023/01/20 07:44:00;;;;;;;21.97;15.30;;;;;;;;;;5092270;28;20488;-53
2023/01/20 07:46:26;;;;;;;22.83;15.17;;;;;;;;;;5092624;28;20203;-54
2023/01/20 07:48:52;;;;;;;19.83;13.97;;;;;;;;;;5092309;28;20726;-54
2023/01/20 07:51:18;;;;;;;19.17;13.83;;;;;;;;;;5092477;28;20206;-55
2023/01/20 07:53:49;;;;;;;21.23;15.07;;;;;;;;;;5092306;28;20194;-55
2023/01/20 07:56:17;;;;;;;24.07;15.73;;;;;;;;;;5092425;28;20205;-53
2023/01/20 07:58:44;;;;;;;23.03;16.47;;;;;;;;;;5092067;28;20519;-54
2023/01/20 08:01:11;;;;;;;22.57;16.30;;;;;;;;;;5092313;28;20462;-53
2023/01/20 08:03:37;;;;;;;26.60;16.90;;;;;;;;;;5091909;28;20981;-54
2023/01/20 08:06:03;;;;;;;22.93;16.07;;;;;;;;;;5091112;28;20504;-54
2023/01/20 08:08:29;;;;;;;26.90;16.77;;;;;;;;;;5092053;28;20650;-55
2023/01/20 08:10:56;;;;;;;29.20;18.10;;;;;;;;;;5092017;28;20425;-55
2023/01/20 08:13:23;;;;;;;27.93;17.67;;;;;;;;;;5092396;28;20465;-55
2023/01/20 08:15:49;;;;;;;25.13;17.23;;;;;;;;;;5091964;28;20433;-54
2023/01/20 08:18:15;;;;;;;26.33;18.00;;;;;;;;;;5091594;28;20452;-62
2023/01/20 08:20:41;;;;;;;28.63;18.83;;;;;;;;;;5091873;28;20203;-54
2023/01/20 08:23:07;;;;;;;28.30;17.80;;;;;;;;;;5091831;28;20206;-53
2023/01/20 08:25:33;;;;;;;31.50;18.37;;;;;;;;;;5092146;28;20756;-53
2023/01/20 08:27:59;;;;;;;25.80;17.57;;;;;;;;;;5091969;28;20222;-54
2023/01/20 08:30:27;;;;;;;27.37;18.20;;;;;;;;;;5091770;28;20284;-54
2023/01/20 08:32:53;;;;;;;32.57;18.97;;;;;;;;;;5091553;28;20556;-53
2023/01/20 08:35:19;;;;;;;29.80;17.97;;;;;;;;;;5091465;28;20433;-54
2023/01/20 08:37:45;;;;;;;27.33;18.90;;;;;;;;;;5091449;28;20948;-54
2023/01/20 08:40:12;;;;;;;27.87;19.10;;;;;;;;;;5091602;28;20191;-53
2023/01/20 08:42:38;;;;;;;29.97;20.40;;;;;;;;;;5091429;28;20433;-54
2023/01/20 08:45:06;;;;;;;32.47;21.53;;;;;;;;;;5091309;28;20576;-54
2023/01/20 08:47:34;;;;;;;31.40;19.97;;;;;;;;;;5091256;28;20437;-54
2023/01/20 08:50:06;;;;;;;30.10;19.97;;;;;;;;;;5091246;28;20453;-54
2023/01/20 08:52:33;;;;;;;29.60;20.40;;;;;;;;;;5091092;28;20441;-54
2023/01/20 08:54:59;;;;;;;33.77;20.83;;;;;;;;;;5091197;28;20520;-54
2023/01/20 08:57:25;;;;;;;30.40;20.07;;;;;;;;;;5091084;28;20432;-53
2023/01/20 08:59:51;;;;;;;31.27;21.37;;;;;;;;;;5091170;28;20444;-54
2023/01/20 09:02:17;;;;;;;31.00;21.17;;;;;;;;;;5091172;28;20764;-53
2023/01/20 09:04:45;;;;;;;30.73;21.20;;;;;;;;;;5090605;28;20258;-53
2023/01/20 09:07:11;;;;;;;29.27;21.93;;;;;;;;;;5090912;28;20230;-54
2023/01/20 09:09:38;;;;;;;33.23;20.67;;;;;;;;;;5090696;28;20927;-53
2023/01/20 09:12:04;;;;;;;29.63;20.13;;;;;;;;;;5090873;28;20484;-53
2023/01/20 09:14:30;;;;;;;27.37;18.97;;;;;;;;;;5090883;28;20472;-53
2023/01/20 09:16:56;;;;;;;29.23;19.30;;;;;;;;;;5090411;28;20469;-53
2023/01/20 09:19:22;;;;;;;24.37;18.03;;;;;;;;;;5090818;28;20199;-53
2023/01/20 09:21:49;;;;;;;25.60;18.27;;;;;;;;;;5090676;28;20233;-53
2023/01/20 09:24:15;;;;;;;22.30;17.83;;;;;;;;;;5090685;28;20629;-52
2023/01/20 09:26:41;;;;;;;26.47;18.90;;;;;;;;;;5090717;28;20191;-52
2023/01/20 09:29:09;;;;;;;26.70;19.40;;;;;;;;;;5090505;28;20222;-53
2023/01/20 09:31:35;;;;;;;25.50;18.83;;;;;;;;;;5090912;28;20225;-53
2023/01/20 09:34:01;;;;;;;23.57;19.00;;;;;;;;;;5090470;28;20222;-50
2023/01/20 09:36:30;;;;;;;26.10;19.97;;;;;;;;;;5090351;28;20283;-52
2023/01/20 09:44:34;;;;;;;27.37;21.53;;;;;;;;;;5090204;28;20226;-50
2023/01/20 09:47:20;;;;;;;27.53;21.50;;;;;;;;;;5090301;28;20249;-51
2023/01/20 09:53:05;;;;;;;26.63;20.63;;;;;;;;;;5090649;28;20779;-48
2023/01/20 09:55:38;;;;;;;27.40;20.37;;;;;;;;;;5089996;28;20671;-50
2023/01/20 09:58:10;;;;;;;31.10;21.40;;;;;;;;;;5090051;28;20207;-49
2023/01/20 10:00:37;;;;;;;30.17;22.13;;;;;;;;;;5090024;28;20202;-50
2023/01/20 10:03:09;;;;;;;30.50;22.83;;;;;;;;;;5089954;28;20191;-50
2023/01/20 10:05:37;;;;;;;32.90;22.93;;;;;;;;;;5090186;28;20541;-49
2023/01/20 10:08:07;;;;;;;34.67;24.73;;;;;;;;;;5090023;28;20524;-50
2023/01/20 10:10:37;;;;;;;30.50;23.47;;;;;;;;;;5090152;28;20445;-49
2023/01/20 10:13:06;;;;;;;34.07;23.30;;;;;;;;;;5089910;28;20440;-48
2023/01/20 10:15:34;;;;;;;36.20;24.37;;;;;;;;;;5090225;28;20428;-53
2023/01/20 10:18:04;;;;;;;31.73;22.10;;;;;;;;;;5089887;28;21002;-52
2023/01/20 10:20:33;;;;;;;36.37;24.27;;;;;;;;;;5090051;28;20951;-53
2023/01/20 10:23:03;;;;;;;38.77;25.30;;;;;;;;;;5089754;28;20495;-53
2023/01/20 10:25:31;;;;;;;37.53;24.50;;;;;;;;;;5089734;28;20568;-53
2023/01/20 10:28:02;;;;;;;33.80;23.70;;;;;;;;;;5089861;28;20437;-53
2023/01/20 10:30:30;;;;;;;34.97;23.57;;;;;;;;;;5093199;28;20523;-53
2023/01/20 10:32:59;;;;;;;30.83;21.53;;;;;;;;;;5093471;28;20455;-54
2023/01/20 10:35:26;;;;;;;31.27;22.27;;;;;;;;;;5093657;28;20437;-54
2023/01/20 10:37:52;;;;;;;35.00;21.33;;;;;;;;;;5093640;28;20958;-53
2023/01/20 10:40:24;;;;;;;30.57;21.37;;;;;;;;;;5093858;28;20444;-54
2023/01/20 10:42:53;;;;;;;29.63;20.20;;;;;;;;;;5093554;28;20245;-54
2023/01/20 10:45:23;;;;;;;33.70;23.47;;;;;;;;;;5093725;28;20472;-54
2023/01/20 10:47:53;;;;;;;32.90;21.47;;;;;;;;;;5093464;28;20452;-54
2023/01/20 10:50:27;;;;;;;27.63;21.10;;;;;;;;;;5093588;28;20453;-53
2023/01/20 10:53:04;;;;;;;32.37;22.60;;;;;;;;;;5093493;28;20437;-53
2023/01/20 10:55:37;;;;;;;32.07;22.17;;;;;;;;;;5093387;28;20441;-54
2023/01/20 10:58:09;;;;;;;27.80;20.57;;;;;;;;;;5093065;28;20915;-53
2023/01/20 11:00:38;;;;;;;33.47;21.37;;;;;;;;;;5093369;28;20441;-54
2023/01/20 11:03:09;;;;;;;27.43;18.97;;;;;;;;;;5093174;28;20441;-54
2023/01/20 11:05:37;;;;;;;32.23;20.20;;;;;;;;;;5093201;28;20468;-54
2023/01/20 11:08:07;;;;;;;23.93;17.77;;;;;;;;;;5093329;28;20429;-54
2023/01/20 11:10:33;;;;;;;24.90;17.57;;;;;;;;;;5093100;28;20447;-53
2023/01/20 11:13:00;;;;;;;22.40;17.53;;;;;;;;;;5093171;28;20467;-54
2023/01/20 11:15:28;;;;;;;22.47;16.20;;;;;;;;;;5093195;28;20191;-53
2023/01/20 11:18:12;;;;;;;22.17;15.63;;;;;;;;;;5092939;28;20671;-54
2023/01/20 11:20:42;;;;;;;19.87;14.73;;;;;;;;;;5082764;28;20276;-54
2023/01/20 11:23:17;;;;;;;20.67;14.43;;;;;;;;;;5092956;28;20229;-54
2023/01/20 11:25:52;;;;;;;20.10;14.63;;;;;;;;;;5093193;28;20275;-54
2023/01/20 11:28:19;;;;;;;18.87;14.67;;;;;;;;;;5091654;28;20301;-53
2023/01/20 11:30:50;;;;;;;20.43;14.70;;;;;;;;;;5092680;28;20221;-53
2023/01/20 11:33:17;;;;;;;16.57;13.63;;;;;;;;;;5092757;28;20213;-53
2023/01/20 11:35:57;;;;;;;18.50;13.30;;;;;;;;;;5092646;28;20234;-54
2023/01/20 11:38:25;;;;;;;18.87;14.93;;;;;;;;;;5092603;28;20206;-53
2023/01/20 11:40:52;;;;;;;19.40;14.67;;;;;;;;;;5091230;28;20207;-52
2023/01/20 11:43:27;;;;;;;18.83;13.27;;;;;;;;;;5092644;28;20604;-53
2023/01/20 11:46:08;;;;;;;16.40;12.90;;;;;;;;;;5092702;28;20325;-53
2023/01/20 11:48:34;;;;;;;19.17;13.93;;;;;;;;;;5092257;28;20206;-53
2023/01/20 11:51:02;;;;;;;22.33;14.50;;;;;;;;;;5092282;28;20199;-54
2023/01/20 11:53:30;;;;;;;18.00;14.07;;;;;;;;;;5092238;28;20195;-54
2023/01/20 11:55:57;;;;;;;22.07;15.30;;;;;;;;;;5090135;28;20544;-54
2023/01/20 11:58:24;;;;;;;21.70;15.83;;;;;;;;;;5091995;28;20201;-54
2023/01/20 12:00:52;;;;;;;19.57;14.43;;;;;;;;;;5092206;28;20194;-54
2023/01/20 12:03:24;;;;;;;17.47;13.60;;;;;;;;;;5091680;28;20236;-54
2023/01/20 12:05:51;;;;;;;18.73;14.17;;;;;;;;;;5091589;28;20265;-54
2023/01/20 12:08:21;;;;;;;20.83;15.03;;;;;;;;;;5091945;28;20207;-54
2023/01/20 12:10:47;;;;;;;23.67;16.07;;;;;;;;;;5091689;28;20211;-53
2023/01/20 12:13:16;;;;;;;24.07;14.83;;;;;;;;;;5091463;28;20512;-54
2023/01/20 12:15:44;;;;;;;25.27;16.60;;;;;;;;;;5091884;28;20428;-54
2023/01/20 12:18:14;;;;;;;20.70;14.23;;;;;;;;;;5091763;28;20449;-53
2023/01/20 12:20:44;;;;;;;21.73;14.73;;;;;;;;;;5091876;28;20804;-54
2023/01/20 12:23:19;;;;;;;23.80;15.40;;;;;;;;;;5091954;28;20433;-54
2023/01/20 12:25:49;;;;;;;22.60;16.10;;;;;;;;;;5091668;28;20572;-54
2023/01/20 12:28:18;;;;;;;20.93;14.57;;;;;;;;;;5091597;28;20511;-53
2023/01/20 12:30:47;;;;;;;22.40;15.87;;;;;;;;;;5091700;28;20468;-53
2023/01/20 12:33:17;;;;;;;22.50;16.03;;;;;;;;;;5091465;28;20942;-55
2023/01/20 12:35:46;;;;;;;20.83;15.57;;;;;;;;;;5091418;28;20817;-54
2023/01/20 12:38:15;;;;;;;22.20;15.30;;;;;;;;;;5091239;28;20444;-54
2023/01/20 12:40:44;;;;;;;19.10;14.37;;;;;;;;;;5091599;28;20636;-54
2023/01/20 12:43:30;;;;;;;21.97;14.23;;;;;;;;;;5091374;28;20847;-58
2023/01/20 12:46:15;;;;;;;21.23;14.57;;;;;;;;;;5091273;28;20473;-54
2023/01/20 12:48:46;;;;;;;19.33;13.33;;;;;;;;;;5091174;28;20531;-54
2023/01/20 12:51:19;;;;;;;21.43;15.00;;;;;;;;;;5090951;28;20444;-54
2023/01/20 12:53:55;;;;;;;17.60;13.70;;;;;;;;;;5090731;28;20502;-53
2023/01/20 12:56:27;;;;;;;20.80;14.47;;;;;;;;;;5091001;28;20441;-55
2023/01/20 12:58:57;;;;;;;23.10;15.07;;;;;;;;;;5090856;28;20436;-53
2023/01/20 13:01:41;;;;;;;22.53;14.90;;;;;;;;;;5091067;28;20453;-53
2023/01/20 13:04:29;;;;;;;20.00;13.63;;;;;;;;;;5090643;28;20481;-54
2023/01/20 13:07:06;;;;;;;19.80;14.23;;;;;;;;;;5090885;28;20441;-54
2023/01/20 13:09:40;;;;;;;20.07;14.33;;;;;;;;;;5090882;28;20448;-54
2023/01/20 13:12:14;;;;;;;18.87;13.97;;;;;;;;;;5090900;28;20436;-54
2023/01/20 13:14:42;;;;;;;19.43;14.17;;;;;;;;;;5088723;28;20429;-54
2023/01/20 13:17:13;;;;;;;20.43;14.13;;;;;;;;;;5090519;28;20456;-54
2023/01/20 13:19:41;;;;;;;21.03;13.90;;;;;;;;;;5090704;28;20443;-54
2023/01/20 13:22:10;;;;;;;21.30;14.40;;;;;;;;;;5090684;28;20429;-54
2023/01/20 13:24:36;;;;;;;22.07;15.37;;;;;;;;;;5090591;28;20587;-54
2023/01/20 13:27:02;;;;;;;20.90;15.13;;;;;;;;;;5090456;28;20436;-54
2023/01/20 13:29:42;;;;;;;20.37;15.03;;;;;;;;;;5090606;28;20990;-54
2023/01/20 13:32:23;;;;;;;23.53;16.07;;;;;;;;;;5090492;28;20306;-54
2023/01/20 13:34:49;;;;;;;23.93;16.23;;;;;;;;;;5090105;28;20421;-54
2023/01/20 13:37:28;;;;;;;21.53;16.20;;;;;;;;;;5090484;28;21030;-54
2023/01/20 13:39:56;;;;;;;21.23;14.40;;;;;;;;;;5090300;28;20619;-54
2023/01/20 13:42:47;;;;;;;21.83;16.43;;;;;;;;;;5090430;28;20450;-54
2023/01/20 13:45:17;;;;;;;21.67;15.13;;;;;;;;;;5075071;28;20550;-55
2023/01/20 13:47:57;;;;;;;21.70;14.63;;;;;;;;;;5090026;28;20441;-55
2023/01/20 13:50:25;;;;;;;22.87;16.00;;;;;;;;;;5089877;28;20448;-54
2023/01/20 13:53:21;;;;;;;22.40;16.63;;;;;;;;;;5089466;28;20448;-53
2023/01/20 13:55:51;;;;;;;23.37;15.60;;;;;;;;;;5015888;28;20431;-55
2023/01/20 13:58:21;;;;;;;24.70;19.23;;;;;;;;;;5056541;28;20497;-53
2023/01/20 14:00:49;;;;;;;24.50;17.83;;;;;;;;;;5069885;28;20939;-54
2023/01/20 14:03:20;;;;;;;31.60;20.90;;;;;;;;;;5069284;28;20449;-54
2023/01/20 14:05:48;;;;;;;30.77;20.83;;;;;;;;;;5069579;28;20472;-54
2023/01/20 14:08:14;;;;;;;28.37;19.73;;;;;;;;;;5069908;28;20472;-55
2023/01/20 14:10:40;;;;;;;27.67;19.17;;;;;;;;;;5070058;28;20525;-54
2023/01/20 14:13:08;;;;;;;25.83;18.90;;;;;;;;;;5069540;28;20938;-55
2023/01/20 14:15:36;;;;;;;28.13;19.57;;;;;;;;;;5069789;28;20438;-54
2023/01/20 14:18:03;;;;;;;30.30;20.67;;;;;;;;;;5069621;28;20517;-55
2023/01/20 14:20:30;;;;;;;29.63;19.77;;;;;;;;;;5069868;28;20462;-54
2023/01/20 14:23:11;;;;;;;34.07;23.60;;;;;;;;;;5069741;28;20436;-55
2023/01/20 14:25:37;;;;;;;33.40;21.27;;;;;;;;;;5069599;28;20473;-54
2023/01/20 14:28:03;;;;;;;34.40;23.23;;;;;;;;;;5069607;28;20441;-53
2023/01/20 14:30:29;;;;;;;29.43;20.57;;;;;;;;;;5069831;28;20203;-53
2023/01/20 14:32:55;;;;;;;30.77;21.57;;;;;;;;;;5071910;28;20438;-54